Danville, New Hampshire
Current Conditions -  °F | °C
As of 7:42 PM on Wednesday 17 Dec 2014 (Local Time) from KLWM Reporting Station
Overcast Overcast  
Wind Chill: 39°   Ceiling: 2700
Heat Index: 44°   Visibility: 10mi
Dew Point: 38°   Wind: 10mph
Humidity: 79%   Direction: 280°W
Pressure: 29.74"   Gusts: NA
Location:  42.91°N, 71.12°W
Report Text: KLWM 180042Z 28009KT 10SM BKN027 OVC048 07/03 A2974 RMK AO2 T00670033
Loading
Personal Weather Stations






























Interactive Weather Map New forecast layout! Learn more

10-Day Weather Forecast

Advertisements
Track Severe Weather on mobile